Time;durP1;ratioP1;P1;durP2;ratioP2;P2;SDS_P1;SDS_P2;PMS_P1;PMS_P2;Temp;Humidity;BMP_temperature;BMP_pressure;BME280_temperature;BME280_humidity;BME280_pressure;Samples;Min_cycle;Max_cycle;Signal;HPM_P1;HPM_P2
2023/04/05 00:01:18;;;;;;;1.40;0.90;;;8.80;97.60;;;;;;6092385;23;20198;-76
2023/04/05 00:03:47;;;;;;;3.83;1.20;;;8.80;97.60;;;;;;6093231;23;20165;-76
2023/04/05 00:06:15;;;;;;;1.73;1.10;;;8.80;97.60;;;;;;6090104;23;20667;-76
2023/04/05 00:08:48;;;;;;;1.90;1.07;;;8.80;97.60;;;;;;6090576;23;20184;-76
2023/04/05 00:11:18;;;;;;;1.40;0.93;;;8.80;97.60;;;;;;6092224;23;20233;-76
2023/04/05 00:13:46;;;;;;;1.97;1.20;;;8.80;97.60;;;;;;6092842;23;20679;-77
2023/04/05 00:16:16;;;;;;;1.40;1.00;;;8.80;97.60;;;;;;6092067;23;20229;-76
2023/04/05 00:18:48;;;;;;;1.10;0.90;;;8.80;97.60;;;;;;6092544;23;20173;-77
2023/04/05 00:21:20;;;;;;;2.80;1.40;;;8.80;97.60;;;;;;6091993;23;20158;-77
2023/04/05 00:23:50;;;;;;;1.87;1.23;;;8.80;97.60;;;;;;6091046;23;20163;-76
2023/04/05 00:26:20;;;;;;;1.93;1.03;;;8.80;97.50;;;;;;6089615;23;20193;-77
2023/04/05 00:28:49;;;;;;;2.40;1.40;;;8.90;97.50;;;;;;6092813;23;20165;-76
2023/04/05 00:31:17;;;;;;;2.93;1.40;;;8.80;97.50;;;;;;6093784;23;20177;-76
2023/04/05 00:33:46;;;;;;;2.10;1.17;;;8.90;97.50;;;;;;6093643;23;20687;-75
2023/04/05 00:36:16;;;;;;;3.97;1.70;;;8.80;97.50;;;;;;6092652;23;20224;-76
2023/04/05 00:38:46;;;;;;;2.30;1.30;;;8.90;97.50;;;;;;6093080;23;20256;-76
2023/04/05 00:41:15;;;;;;;1.70;1.10;;;8.90;97.50;;;;;;6093678;23;20162;-76
2023/04/05 00:43:45;;;;;;;2.90;1.50;;;8.90;97.50;;;;;;6094525;23;20233;-76
2023/04/05 00:46:13;;;;;;;2.57;1.50;;;8.80;97.60;;;;;;6093950;23;20185;-76
2023/04/05 00:48:41;;;;;;;2.20;1.47;;;8.80;97.60;;;;;;6094460;23;20229;-75
2023/04/05 00:51:11;;;;;;;3.70;1.83;;;8.80;97.60;;;;;;6092377;23;20178;-77
2023/04/05 00:53:41;;;;;;;2.50;1.53;;;8.80;97.70;;;;;;6090759;23;20694;-76
2023/04/05 00:56:12;;;;;;;3.23;1.60;;;8.80;97.70;;;;;;6094499;23;20182;-76
2023/04/05 00:58:41;;;;;;;3.10;1.50;;;8.80;97.70;;;;;;6093911;23;20202;-77
2023/04/05 01:01:17;;;;;;;4.17;2.20;;;8.80;97.70;;;;;;6092120;23;20174;-76
2023/04/05 01:03:51;;;;;;;4.03;1.93;;;8.80;97.70;;;;;;6095263;23;20545;-76
2023/04/05 01:06:31;;;;;;;3.53;2.10;;;8.80;97.80;;;;;;6091034;23;20193;-76
2023/04/05 01:09:05;;;;;;;3.40;2.13;;;8.80;97.80;;;;;;6091488;23;20580;-77
2023/04/05 01:11:35;;;;;;;4.27;2.30;;;8.80;97.80;;;;;;6092736;23;20787;-75
2023/04/05 01:14:03;;;;;;;4.77;2.60;;;8.70;97.90;;;;;;6093199;23;20182;-76
2023/04/05 01:16:33;;;;;;;3.67;2.27;;;8.80;97.90;;;;;;6091332;23;20229;-77
2023/04/05 01:19:03;;;;;;;4.33;2.00;;;8.80;98.30;;;;;;6091139;23;20641;-76
2023/04/05 01:21:58;;;;;;;3.10;1.97;;;8.90;98.20;;;;;;6094317;23;20176;-76
2023/04/05 01:24:39;;;;;;;4.57;2.43;;;8.90;97.90;;;;;;6093076;23;20465;-75
2023/04/05 01:27:10;;;;;;;3.90;2.00;;;8.90;97.90;;;;;;6092946;23;20186;-76
2023/04/05 01:29:53;;;;;;;4.23;2.43;;;8.90;97.90;;;;;;6093247;23;20172;-75
2023/04/05 01:32:42;;;;;;;4.60;2.30;;;8.90;97.90;;;;;;6092623;23;20190;-76
2023/04/05 01:35:16;;;;;;;4.20;2.23;;;8.90;98.00;;;;;;6093411;23;20194;-76
2023/04/05 01:37:49;;;;;;;4.77;2.23;;;8.90;98.00;;;;;;6093699;23;20168;-76
2023/04/05 01:40:18;;;;;;;3.97;2.10;;;8.90;97.90;;;;;;6092102;23;20166;-76
2023/04/05 01:42:47;;;;;;;3.77;1.83;;;9.00;97.90;;;;;;6093493;23;20232;-75
2023/04/05 01:45:16;;;;;;;4.70;2.30;;;8.90;97.90;;;;;;6094354;23;20174;-77
2023/04/05 01:47:45;;;;;;;5.23;2.67;;;9.00;98.00;;;;;;6093840;23;20253;-76
2023/04/05 01:50:13;;;;;;;4.17;2.10;;;8.90;98.00;;;;;;6093443;23;20553;-76
2023/04/05 01:52:41;;;;;;;5.33;2.47;;;8.90;97.90;;;;;;6093376;23;20182;-75
2023/04/05 01:55:10;;;;;;;4.10;2.27;;;9.00;97.90;;;;;;6087782;23;20236;-75
2023/04/05 01:57:38;;;;;;;4.20;2.20;;;9.00;97.90;;;;;;6094042;23;20691;-76
2023/04/05 02:00:09;;;;;;;4.17;2.00;;;9.00;97.90;;;;;;6090996;23;20185;-76
2023/04/05 02:02:39;;;;;;;5.33;2.53;;;9.00;97.90;;;;;;6091755;23;20168;-76
2023/04/05 02:05:08;;;;;;;4.17;2.07;;;9.00;98.00;;;;;;6092399;23;20182;-75
2023/04/05 02:07:36;;;;;;;4.33;2.30;;;9.10;97.90;;;;;;6091613;23;20223;-76
2023/04/05 02:10:06;;;;;;;6.20;3.00;;;9.00;97.90;;;;;;6090695;23;20229;-76
2023/04/05 02:12:34;;;;;;;5.73;2.67;;;9.10;97.90;;;;;;6092368;23;20170;-76
2023/04/05 02:15:03;;;;;;;7.20;2.53;;;9.10;98.00;;;;;;6090066;23;20499;-76
2023/04/05 02:17:38;;;;;;;5.03;2.70;;;9.10;98.00;;;;;;6091194;23;20181;-75
2023/04/05 02:20:11;;;;;;;4.87;2.70;;;9.10;97.90;;;;;;6089135;23;20165;-76
2023/04/05 02:22:40;;;;;;;3.90;2.43;;;9.10;97.90;;;;;;6090047;23;20169;-76
2023/04/05 02:25:08;;;;;;;8.27;2.67;;;9.10;97.90;;;;;;6089049;23;20217;-76
2023/04/05 02:27:37;;;;;;;4.80;2.30;;;9.10;97.90;;;;;;6091155;23;20217;-76
2023/04/05 02:30:07;;;;;;;5.50;2.63;;;9.20;97.90;;;;;;6091038;23;20186;-75
2023/04/05 02:32:35;;;;;;;6.03;2.67;;;9.20;97.90;;;;;;6092281;23;20248;-75
2023/04/05 02:35:04;;;;;;;4.60;2.40;;;9.20;97.80;;;;;;6092001;23;20180;-76
2023/04/05 02:37:34;;;;;;;4.03;2.40;;;9.20;97.80;;;;;;6093092;23;20254;-76
2023/04/05 02:40:04;;;;;;;4.07;2.30;;;9.20;97.80;;;;;;6094501;23;20177;-76
2023/04/05 02:42:32;;;;;;;5.03;2.77;;;9.20;97.80;;;;;;6089514;23;20210;-78
2023/04/05 02:45:00;;;;;;;3.80;2.13;;;9.30;97.80;;;;;;6093447;23;20177;-76
2023/04/05 02:47:29;;;;;;;5.63;2.57;;;9.30;97.80;;;;;;6093656;23;20249;-76
2023/04/05 02:49:57;;;;;;;6.50;2.70;;;9.20;97.80;;;;;;6093648;23;20468;-75
2023/04/05 02:52:25;;;;;;;4.67;2.50;;;9.30;97.80;;;;;;6091661;23;20233;-75
2023/04/05 02:54:55;;;;;;;5.33;2.70;;;9.20;97.80;;;;;;6089671;23;20182;-75
2023/04/05 02:57:24;;;;;;;5.73;2.70;;;9.20;97.90;;;;;;6089598;23;20177;-76
2023/04/05 02:59:53;;;;;;;5.37;2.97;;;9.30;97.90;;;;;;6091062;23;20202;-75
2023/04/05 03:02:21;;;;;;;7.60;3.17;;;9.20;97.80;;;;;;6090921;23;20170;-76
2023/04/05 03:04:52;;;;;;;6.20;2.87;;;9.20;97.80;;;;;;6092664;23;20180;-76
2023/04/05 03:07:20;;;;;;;5.70;2.97;;;9.30;97.80;;;;;;6091469;23;20186;-76
2023/04/05 03:09:50;;;;;;;4.83;2.73;;;9.30;97.80;;;;;;6093274;23;20241;-75
2023/04/05 03:12:20;;;;;;;8.33;3.10;;;9.30;97.80;;;;;;6090213;23;20233;-76
2023/04/05 03:14:48;;;;;;;6.10;3.20;;;9.30;97.70;;;;;;6089792;23;20174;-76
2023/04/05 03:17:16;;;;;;;7.17;3.23;;;9.30;97.70;;;;;;6089189;23;20225;-76
2023/04/05 03:19:45;;;;;;;10.00;3.63;;;9.30;97.70;;;;;;6093702;23;20174;-76
2023/04/05 03:22:13;;;;;;;6.67;3.30;;;9.30;97.70;;;;;;6091500;23;20631;-77
2023/04/05 03:24:43;;;;;;;9.13;3.53;;;9.30;97.70;;;;;;6090376;23;20193;-76
2023/04/05 03:27:13;;;;;;;7.23;3.97;;;9.30;97.70;;;;;;6092433;23;20197;-76
2023/04/05 03:29:43;;;;;;;5.23;2.93;;;9.30;97.60;;;;;;6092543;23;20245;-76
2023/04/05 03:32:12;;;;;;;7.10;3.40;;;9.30;97.60;;;;;;6092174;23;20225;-76
2023/04/05 03:34:41;;;;;;;6.17;3.57;;;9.30;97.60;;;;;;6093919;23;20177;-77
2023/04/05 03:37:09;;;;;;;6.23;3.17;;;9.30;97.60;;;;;;6093869;23;20173;-76
2023/04/05 03:39:38;;;;;;;5.77;3.37;;;9.30;97.60;;;;;;6092373;23;20173;-75
2023/04/05 03:42:06;;;;;;;6.47;3.53;;;9.30;97.60;;;;;;6091559;23;20659;-75
2023/04/05 03:44:35;;;;;;;7.37;4.10;;;9.30;97.60;;;;;;6093593;23;20225;-76
2023/04/05 03:47:04;;;;;;;5.70;3.57;;;9.20;97.60;;;;;;6092169;23;20535;-75
2023/04/05 03:49:33;;;;;;;6.90;3.70;;;9.20;97.60;;;;;;6093189;23;20174;-76
2023/04/05 03:52:01;;;;;;;6.17;3.23;;;9.20;97.60;;;;;;6091511;23;20240;-76
2023/04/05 03:54:29;;;;;;;6.47;3.37;;;9.30;97.60;;;;;;6090779;23;20178;-75
2023/04/05 03:56:58;;;;;;;7.47;3.43;;;9.20;97.60;;;;;;6089794;23;20707;-77
2023/04/05 03:59:26;;;;;;;7.37;3.60;;;9.20;97.60;;;;;;6087761;23;20257;-76
2023/04/05 04:01:55;;;;;;;5.77;3.47;;;9.20;97.60;;;;;;6091920;23;20252;-75
2023/04/05 04:04:25;;;;;;;6.87;3.23;;;9.20;97.60;;;;;;6092846;23;20170;-75
2023/04/05 04:06:55;;;;;;;7.23;3.70;;;9.20;97.60;;;;;;6094065;23;20174;-75
2023/04/05 04:09:23;;;;;;;7.40;3.50;;;9.20;97.50;;;;;;6092563;23;20194;-76
2023/04/05 04:11:52;;;;;;;7.27;3.47;;;9.20;97.60;;;;;;6094949;23;20618;-76
2023/04/05 04:14:20;;;;;;;7.57;3.80;;;9.30;97.60;;;;;;6094672;23;20504;-75
2023/04/05 04:16:48;;;;;;;6.47;3.30;;;9.30;97.60;;;;;;6093986;23;20173;-75
2023/04/05 04:19:17;;;;;;;6.37;3.10;;;9.30;97.50;;;;;;6093744;23;20178;-75
2023/04/05 04:21:50;;;;;;;7.47;3.90;;;9.30;97.50;;;;;;6093844;23;20183;-75
2023/04/05 04:24:19;;;;;;;7.10;3.80;;;9.30;97.50;;;;;;6094535;23;20181;-75
2023/04/05 04:26:48;;;;;;;6.93;3.70;;;9.30;97.50;;;;;;6095876;23;20228;-75
2023/04/05 04:29:17;;;;;;;6.63;3.50;;;9.30;97.40;;;;;;6093610;23;20201;-77
2023/04/05 04:31:47;;;;;;;5.50;3.30;;;9.30;97.40;;;;;;6095553;23;20181;-76
2023/04/05 04:34:17;;;;;;;6.60;3.20;;;9.30;97.40;;;;;;6092976;23;20169;-75
2023/04/05 04:36:56;;;;;;;8.40;3.67;;;9.30;97.30;;;;;;6094659;23;20158;-76
2023/04/05 04:39:26;;;;;;;6.13;3.33;;;9.30;97.40;;;;;;6094840;23;20547;-76
2023/04/05 04:41:54;;;;;;;6.57;3.20;;;9.30;97.40;;;;;;6095522;23;20225;-76
2023/04/05 04:44:27;;;;;;;5.90;2.80;;;9.30;97.30;;;;;;6095060;23;20205;-77
2023/04/05 04:46:55;;;;;;;6.77;3.80;;;9.30;97.40;;;;;;6094893;23;20163;-76
2023/04/05 04:49:23;;;;;;;6.33;3.50;;;9.30;97.30;;;;;;6094485;23;20517;-77
2023/04/05 04:51:53;;;;;;;6.10;3.57;;;9.30;97.30;;;;;;6095601;23;20209;-77
2023/04/05 04:54:21;;;;;;;6.70;3.63;;;9.30;97.30;;;;;;6095799;23;20225;-76
2023/04/05 04:56:50;;;;;;;8.10;3.67;;;9.30;97.40;;;;;;6095083;23;20174;-75
2023/04/05 04:59:18;;;;;;;6.60;3.47;;;9.30;97.30;;;;;;6092392;23;20226;-78
2023/04/05 05:01:47;;;;;;;6.17;3.07;;;9.30;97.40;;;;;;6094931;23;20174;-76
2023/04/05 05:04:15;;;;;;;7.07;4.33;;;9.30;97.30;;;;;;6095665;23;20169;-76
2023/04/05 05:06:43;;;;;;;6.63;3.57;;;9.30;97.30;;;;;;6094962;23;20315;-76
2023/04/05 05:09:13;;;;;;;6.97;3.80;;;9.40;97.30;;;;;;6092042;23;20193;-78
2023/04/05 05:11:41;;;;;;;9.60;4.80;;;9.40;97.30;;;;;;6094979;23;20229;-76
2023/04/05 05:14:10;;;;;;;8.70;4.90;;;9.40;97.20;;;;;;6093632;23;20280;-76
2023/04/05 05:16:38;;;;;;;9.50;5.13;;;9.40;97.20;;;;;;6092720;23;20266;-76
2023/04/05 05:19:06;;;;;;;10.37;5.67;;;9.40;97.10;;;;;;6092951;23;20181;-76
2023/04/05 05:21:35;;;;;;;7.73;4.60;;;9.40;97.10;;;;;;6094295;23;20180;-75
2023/04/05 05:24:06;;;;;;;7.90;4.43;;;9.40;97.00;;;;;;6092703;23;20174;-76
2023/04/05 05:26:36;;;;;;;9.00;5.00;;;9.40;97.00;;;;;;6092471;23;20158;-76
2023/04/05 05:29:05;;;;;;;9.37;5.13;;;9.40;96.90;;;;;;6092819;23;20190;-76
2023/04/05 05:31:33;;;;;;;8.40;4.83;;;9.40;96.90;;;;;;6090040;23;20607;-75
2023/04/05 05:34:01;;;;;;;9.80;5.23;;;9.40;96.90;;;;;;6091317;23;20170;-77
2023/04/05 05:36:30;;;;;;;11.03;5.50;;;9.50;96.80;;;;;;6094480;23;20238;-75
2023/04/05 05:38:58;;;;;;;10.83;5.40;;;9.50;96.80;;;;;;6093843;23;20640;-77
2023/04/05 05:41:26;;;;;;;9.80;5.57;;;9.50;96.90;;;;;;6093792;23;20237;-76
2023/04/05 05:43:56;;;;;;;9.93;5.10;;;9.50;96.80;;;;;;6091842;23;20178;-76
2023/04/05 05:46:25;;;;;;;10.77;6.00;;;9.50;96.70;;;;;;6090163;23;20170;-76
2023/04/05 05:48:54;;;;;;;13.20;6.67;;;9.50;96.70;;;;;;6093026;23;20526;-76
2023/04/05 05:51:22;;;;;;;9.97;6.03;;;9.60;96.70;;;;;;6093858;23;20174;-75
2023/04/05 05:53:50;;;;;;;11.23;6.77;;;9.60;96.70;;;;;;6095321;23;20185;-77
2023/04/05 05:56:19;;;;;;;10.63;6.40;;;9.50;96.60;;;;;;6095456;23;20261;-76
2023/04/05 05:58:48;;;;;;;14.43;6.63;;;9.60;96.60;;;;;;6089430;23;20257;-76
2023/04/05 06:01:21;;;;;;;13.10;7.37;;;9.60;96.60;;;;;;6092533;23;20181;-76
2023/04/05 06:03:50;;;;;;;13.47;7.50;;;9.60;96.60;;;;;;6089535;23;20537;-77
2023/04/05 06:06:19;;;;;;;16.17;7.43;;;9.60;96.50;;;;;;6090618;23;20521;-76
2023/04/05 06:08:48;;;;;;;15.23;7.40;;;9.60;96.20;;;;;;6093467;23;20204;-77
2023/04/05 06:11:20;;;;;;;14.07;7.47;;;9.60;96.20;;;;;;6094734;23;20181;-76
2023/04/05 06:13:50;;;;;;;13.60;7.87;;;9.60;96.00;;;;;;6094231;23;20173;-77
2023/04/05 06:16:20;;;;;;;17.93;8.23;;;9.60;96.00;;;;;;6095303;23;20166;-77
2023/04/05 06:18:48;;;;;;;13.80;6.90;;;9.60;96.00;;;;;;6093442;23;20178;-77
2023/04/05 06:21:17;;;;;;;14.60;8.23;;;9.70;96.00;;;;;;6094644;23;20177;-76
2023/04/05 06:23:45;;;;;;;13.33;7.63;;;9.70;96.00;;;;;;6094418;23;20183;-77
2023/04/05 06:26:19;;;;;;;12.90;7.40;;;9.70;95.90;;;;;;6093055;23;20182;-77
2023/04/05 06:28:47;;;;;;;18.07;9.03;;;9.80;96.00;;;;;;6094288;23;20221;-76
2023/04/05 06:31:16;;;;;;;14.87;8.53;;;9.80;96.00;;;;;;6092573;23;20474;-77
2023/04/05 06:33:46;;;;;;;17.07;8.13;;;9.80;95.90;;;;;;6093040;23;20170;-76
2023/04/05 06:36:15;;;;;;;17.17;8.47;;;9.80;95.90;;;;;;6091856;23;20162;-76
2023/04/05 06:38:43;;;;;;;17.20;8.37;;;9.80;95.70;;;;;;6093095;23;20236;-77
2023/04/05 06:41:12;;;;;;;17.67;9.63;;;9.80;95.80;;;;;;6093634;23;20632;-76
2023/04/05 06:43:40;;;;;;;14.70;8.10;;;9.80;95.80;;;;;;6095074;23;20174;-76
2023/04/05 06:46:10;;;;;;;19.40;9.83;;;9.80;95.70;;;;;;6092522;23;20300;-76
2023/04/05 06:48:38;;;;;;;17.73;8.77;;;9.90;95.70;;;;;;6093613;23;20504;-77
2023/04/05 06:51:08;;;;;;;20.03;8.80;;;9.80;95.80;;;;;;6095369;23;20214;-77
2023/04/05 06:53:36;;;;;;;19.30;9.87;;;9.90;95.80;;;;;;6094722;23;20174;-77
2023/04/05 06:56:05;;;;;;;20.67;10.27;;;9.90;95.80;;;;;;6093185;23;20174;-77
2023/04/05 06:58:33;;;;;;;19.30;10.03;;;9.90;95.70;;;;;;6093655;23;20261;-76
2023/04/05 07:01:02;;;;;;;19.43;9.97;;;10.00;95.70;;;;;;6090520;23;20182;-76
2023/04/05 07:03:31;;;;;;;22.47;11.20;;;10.00;95.80;;;;;;6090905;23;20216;-79
2023/04/05 07:06:00;;;;;;;18.10;9.73;;;10.00;95.60;;;;;;6088750;23;20180;-78
2023/04/05 07:08:32;;;;;;;24.13;11.27;;;9.90;96.00;;;;;;6087658;23;20177;-77
2023/04/05 07:11:01;;;;;;;21.67;11.13;;;9.90;95.70;;;;;;6090301;23;20189;-76
2023/04/05 07:13:29;;;;;;;19.97;10.93;;;10.10;95.80;;;;;;6092162;23;20182;-75
2023/04/05 07:16:02;;;;;;;25.83;11.33;;;10.10;95.80;;;;;;6091924;23;20158;-77
2023/04/05 07:18:33;;;;;;;20.33;11.03;;;10.10;95.80;;;;;;6091479;23;20253;-78
2023/04/05 07:21:11;;;;;;;22.13;10.47;;;10.20;95.80;;;;;;6088566;23;20158;-79
2023/04/05 07:23:40;;;;;;;21.77;11.17;;;10.20;95.70;;;;;;6091037;23;20549;-76
2023/04/05 07:26:09;;;;;;;18.97;10.40;;;10.20;95.50;;;;;;6091403;23;20253;-77
2023/04/05 07:28:38;;;;;;;19.47;10.93;;;10.20;95.50;;;;;;6091324;23;20177;-77
2023/04/05 07:31:07;;;;;;;23.00;11.90;;;10.30;95.60;;;;;;6090535;23;20258;-78
2023/04/05 07:33:35;;;;;;;22.10;10.77;;;10.30;95.40;;;;;;6090419;23;20571;-76
2023/04/05 07:36:04;;;;;;;17.87;10.13;;;10.30;95.50;;;;;;6091804;23;20174;-75
2023/04/05 07:38:33;;;;;;;20.83;10.87;;;10.30;95.40;;;;;;6091891;23;20751;-75
2023/04/05 07:41:02;;;;;;;19.90;10.63;;;10.40;95.40;;;;;;6091772;23;20188;-78
2023/04/05 07:43:31;;;;;;;18.47;9.50;;;10.40;95.30;;;;;;6094059;23;20174;-76
2023/04/05 07:46:03;;;;;;;17.87;9.33;;;10.40;95.30;;;;;;6091887;23;20619;-76
2023/04/05 07:48:31;;;;;;;19.63;10.90;;;10.40;95.30;;;;;;6092040;23;20213;-76
2023/04/05 07:51:04;;;;;;;20.00;9.43;;;10.50;95.30;;;;;;6089736;23;20202;-75
2023/04/05 07:53:33;;;;;;;20.60;10.97;;;10.50;95.30;;;;;;6093198;23;20246;-76
2023/04/05 07:56:05;;;;;;;21.50;11.07;;;10.50;95.30;;;;;;6092001;23;20181;-75
2023/04/05 07:58:34;;;;;;;21.43;10.37;;;10.60;95.30;;;;;;6092471;23;20678;-75
2023/04/05 08:01:02;;;;;;;21.07;10.77;;;10.60;95.30;;;;;;6090990;23;20642;-75
2023/04/05 08:03:33;;;;;;;19.13;10.00;;;10.60;95.30;;;;;;6093768;23;20170;-76
2023/04/05 08:06:10;;;;;;;19.87;10.17;;;10.70;95.30;;;;;;6093407;23;20162;-74
2023/04/05 08:08:39;;;;;;;16.30;9.37;;;10.60;95.00;;;;;;6091153;23;20161;-74
2023/04/05 08:11:08;;;;;;;18.17;9.67;;;10.70;95.00;;;;;;6093136;23;20506;-74
2023/04/05 08:13:39;;;;;;;17.90;9.20;;;10.70;95.00;;;;;;6091906;23;20170;-75
2023/04/05 08:16:08;;;;;;;17.73;10.03;;;10.80;95.00;;;;;;6093098;23;20245;-75
2023/04/05 08:18:36;;;;;;;19.63;9.77;;;10.90;95.00;;;;;;6094021;23;20181;-74
2023/04/05 08:21:05;;;;;;;17.97;9.30;;;11.00;95.10;;;;;;6092806;23;20181;-73
2023/04/05 08:23:33;;;;;;;17.07;9.60;;;11.00;94.50;;;;;;6091541;23;20718;-76
2023/04/05 08:26:17;;;;;;;19.50;10.17;;;11.10;94.60;;;;;;6092576;23;20519;-74
2023/04/05 08:28:45;;;;;;;17.87;10.00;;;11.10;94.50;;;;;;6091259;23;20165;-75
2023/04/05 08:31:14;;;;;;;16.87;8.33;;;11.10;94.40;;;;;;6089619;23;20202;-76
2023/04/05 08:33:43;;;;;;;17.53;9.13;;;11.10;94.40;;;;;;6093409;23;20205;-76
2023/04/05 08:36:12;;;;;;;17.47;9.13;;;11.10;93.90;;;;;;6090527;23;20174;-75
2023/04/05 08:38:40;;;;;;;17.53;9.03;;;11.10;93.80;;;;;;6091073;23;20522;-74
2023/04/05 08:41:14;;;;;;;15.50;8.83;;;11.10;93.90;;;;;;6093095;23;20185;-74
2023/04/05 08:43:57;;;;;;;14.90;8.20;;;11.20;93.90;;;;;;6092091;23;20165;-76
2023/04/05 08:46:30;;;;;;;14.33;8.57;;;11.10;93.50;;;;;;6092040;23;20679;-75
2023/04/05 08:48:58;;;;;;;16.80;8.80;;;11.10;93.50;;;;;;6092481;23;20589;-77
2023/04/05 08:51:27;;;;;;;18.07;9.20;;;11.10;93.60;;;;;;6092824;23;20209;-76
2023/04/05 08:53:56;;;;;;;15.80;8.77;;;11.20;93.60;;;;;;6092016;23;20184;-76
2023/04/05 08:56:31;;;;;;;14.70;7.37;;;11.20;93.40;;;;;;6092935;23;20181;-76
2023/04/05 08:59:03;;;;;;;13.70;7.67;;;11.30;93.50;;;;;;6088513;23;20197;-77
2023/04/05 09:01:33;;;;;;;15.87;7.73;;;11.30;93.20;;;;;;6090303;23;20168;-77
2023/04/05 09:04:09;;;;;;;13.57;7.07;;;11.30;93.20;;;;;;6091434;23;20706;-77
2023/04/05 09:06:38;;;;;;;14.27;7.97;;;11.40;93.30;;;;;;6093506;23;20194;-77
2023/04/05 09:09:08;;;;;;;14.03;7.30;;;11.50;93.30;;;;;;6094718;23;20230;-77
2023/04/05 09:11:39;;;;;;;10.57;5.93;;;11.60;93.00;;;;;;6094167;23;20205;-77
2023/04/05 09:14:08;;;;;;;11.57;6.60;;;11.70;93.00;;;;;;6095627;23;20166;-78
2023/04/05 09:16:38;;;;;;;14.23;7.00;;;11.80;92.70;;;;;;6096146;23;20630;-76
2023/04/05 09:19:08;;;;;;;11.63;6.70;;;11.90;92.70;;;;;;6092844;23;20173;-77
2023/04/05 09:21:58;;;;;;;15.23;6.70;;;12.00;92.20;;;;;;6091029;23;20177;-77
2023/04/05 09:24:35;;;;;;;10.40;6.53;;;12.30;92.30;;;;;;6094585;23;20170;-77
2023/04/05 09:27:11;;;;;;;10.30;6.10;;;12.40;91.80;;;;;;6092498;23;20829;-77
2023/04/05 09:29:40;;;;;;;12.37;7.07;;;12.50;90.90;;;;;;6091219;23;20218;-77
2023/04/05 09:32:09;;;;;;;8.37;5.47;;;12.60;91.20;;;;;;6093931;23;20526;-76
2023/04/05 09:34:39;;;;;;;13.57;6.77;;;12.60;90.40;;;;;;6093599;23;20178;-76
2023/04/05 09:37:15;;;;;;;10.27;5.10;;;12.70;90.40;;;;;;6093353;23;20174;-76
2023/04/05 09:40:02;;;;;;;9.20;5.50;;;12.70;90.10;;;;;;6091821;23;20169;-76
2023/04/05 09:42:44;;;;;;;11.33;5.90;;;12.80;90.30;;;;;;6091384;23;20162;-74
2023/04/05 09:45:13;;;;;;;9.80;5.90;;;12.90;90.40;;;;;;6088946;23;20356;-74
2023/04/05 09:47:44;;;;;;;8.70;4.77;;;13.00;90.20;;;;;;6092837;23;20297;-73
2023/04/05 09:50:20;;;;;;;8.30;4.87;;;13.10;90.30;;;;;;6090722;23;20208;-73
2023/04/05 09:52:50;;;;;;;14.03;5.67;;;13.10;90.20;;;;;;6090347;23;20185;-74
2023/04/05 09:55:27;;;;;;;9.77;5.40;;;13.10;88.90;;;;;;6092558;23;20182;-73
2023/04/05 09:57:57;;;;;;;9.97;6.23;;;13.10;88.50;;;;;;5999531;23;20203;-73
2023/04/05 10:00:25;;;;;;;14.67;6.17;;;13.10;88.30;;;;;;6001122;23;20267;-73
2023/04/05 10:02:56;;;;;;;10.73;5.87;;;13.10;88.50;;;;;;6001572;23;20256;-74
2023/04/05 10:05:27;;;;;;;9.77;4.70;;;13.20;88.70;;;;;;6004496;23;20497;-72
2023/04/05 10:07:56;;;;;;;10.47;5.37;;;13.20;87.10;;;;;;6003356;23;20160;-73
2023/04/05 10:10:26;;;;;;;8.10;4.70;;;13.30;87.40;;;;;;6001069;23;20232;-73
2023/04/05 10:12:56;;;;;;;6.00;3.90;;;13.30;87.20;;;;;;6006683;23;20268;-73
2023/04/05 10:15:26;;;;;;;7.70;4.43;;;13.40;87.20;;;;;;6024666;23;20628;-73
2023/04/05 10:18:03;;;;;;;6.80;4.63;;;13.50;86.50;;;;;;6094294;23;20177;-73
2023/04/05 10:20:35;;;;;;;9.50;4.53;;;13.60;86.40;;;;;;6092875;23;20178;-72
2023/04/05 10:23:09;;;;;;;9.00;4.67;;;13.60;84.30;;;;;;6092496;23;20520;-73
2023/04/05 10:25:49;;;;;;;8.03;4.50;;;13.60;85.10;;;;;;6090731;23;20551;-72
2023/04/05 10:28:30;;;;;;;7.27;4.40;;;13.70;85.80;;;;;;6095163;23;20532;-73
2023/04/05 10:31:10;;;;;;;5.67;3.70;;;13.70;84.10;;;;;;6093110;23;20726;-73
2023/04/05 10:33:51;;;;;;;6.27;3.53;;;13.70;83.50;;;;;;5077836;27;20561;-72
2023/04/05 10:36:30;;;;;;;7.37;3.40;;;13.80;83.50;;;;;;5066027;28;20195;-71
2023/04/05 10:39:03;;;;;;;6.10;3.30;;;13.90;83.90;;;;;;5067668;28;20653;-72
2023/04/05 10:41:36;;;;;;;4.83;3.03;;;13.90;81.70;;;;;;5058085;28;20197;-72
2023/04/05 10:44:14;;;;;;;6.43;3.67;;;14.00;82.60;;;;;;5067608;28;20202;-72
2023/04/05 10:46:55;;;;;;;7.53;3.90;;;14.00;82.20;;;;;;5071583;28;20197;-72
2023/04/05 10:49:33;;;;;;;5.70;3.40;;;14.10;82.50;;;;;;5059498;28;20624;-73
2023/04/05 10:52:03;;;;;;;7.43;4.23;;;14.10;82.70;;;;;;5060964;28;20292;-73
2023/04/05 10:54:35;;;;;;;6.20;4.17;;;14.20;82.90;;;;;;5059282;28;20702;-73
2023/04/05 10:57:13;;;;;;;6.50;3.67;;;14.20;83.00;;;;;;5062048;28;20187;-74
2023/04/05 10:59:43;;;;;;;8.17;4.40;;;14.30;83.10;;;;;;5070911;28;20213;-71
2023/04/05 11:02:12;;;;;;;9.77;5.10;;;14.30;82.70;;;;;;5063694;28;20248;-72
2023/04/05 11:04:42;;;;;;;9.13;5.17;;;14.30;81.50;;;;;;5071091;28;20195;-73
2023/04/05 11:07:12;;;;;;;8.53;4.67;;;14.30;81.40;;;;;;5069777;28;20281;-74
2023/04/05 11:09:51;;;;;;;8.60;4.70;;;14.30;82.00;;;;;;5069521;28;20252;-74
2023/04/05 11:12:20;;;;;;;12.43;5.30;;;14.30;82.20;;;;;;5064736;28;20301;-75
2023/04/05 11:14:48;;;;;;;9.40;4.60;;;14.40;82.10;;;;;;5065895;28;20217;-74
2023/04/05 11:17:27;;;;;;;9.07;5.20;;;14.50;82.00;;;;;;5070483;28;20248;-74
2023/04/05 11:20:05;;;;;;;9.07;4.93;;;14.40;80.70;;;;;;5065034;28;20233;-74
2023/04/05 11:22:34;;;;;;;11.60;5.50;;;14.50;80.90;;;;;;5069651;28;20209;-75
2023/04/05 11:25:03;;;;;;;12.97;4.90;;;14.50;80.50;;;;;;5069604;28;20259;-74
2023/04/05 11:27:32;;;;;;;8.80;4.40;;;14.60;80.90;;;;;;5072898;28;20545;-74
2023/04/05 11:30:02;;;;;;;5.87;3.70;;;14.60;79.90;;;;;;5073450;28;20205;-74
2023/04/05 11:32:41;;;;;;;8.23;4.60;;;14.70;78.40;;;;;;5064797;28;20238;-73
2023/04/05 11:35:16;;;;;;;9.70;5.50;;;14.80;78.00;;;;;;5066178;28;20194;-73
2023/04/05 11:37:55;;;;;;;8.10;4.93;;;14.90;78.70;;;;;;5073888;28;20204;-73
2023/04/05 11:40:28;;;;;;;13.27;5.07;;;15.00;78.20;;;;;;5072788;28;20252;-73
2023/04/05 11:43:01;;;;;;;6.03;4.00;;;15.10;79.30;;;;;;5064890;28;20182;-74
2023/04/05 11:45:31;;;;;;;8.87;4.33;;;15.20;78.40;;;;;;5054343;28;20191;-73
2023/04/05 11:48:01;;;;;;;7.27;4.33;;;15.30;78.40;;;;;;5050487;28;20248;-72
2023/04/05 11:50:31;;;;;;;6.77;4.30;;;15.50;78.80;;;;;;5055672;28;20196;-73
2023/04/05 11:53:13;;;;;;;7.40;4.70;;;15.60;78.30;;;;;;5048517;28;20207;-74
2023/04/05 11:55:43;;;;;;;6.27;3.90;;;15.80;77.60;;;;;;5050918;28;20707;-72
2023/04/05 11:58:13;;;;;;;9.63;3.67;;;15.80;77.00;;;;;;5045725;28;20659;-74
2023/04/05 12:00:41;;;;;;;6.07;3.50;;;15.90;77.50;;;;;;5041685;28;20195;-76
2023/04/05 12:03:12;;;;;;;5.27;3.10;;;16.10;78.80;;;;;;5050503;28;20187;-74
2023/04/05 12:05:49;;;;;;;5.90;3.27;;;16.20;77.50;;;;;;5039242;28;20204;-74
2023/04/05 12:08:18;;;;;;;4.63;3.40;;;16.00;76.90;;;;;;5053590;28;20195;-74
2023/04/05 12:10:54;;;;;;;3.07;2.27;;;15.90;76.70;;;;;;5049133;28;20297;-73
2023/04/05 12:13:28;;;;;;;7.07;3.10;;;15.70;75.60;;;;;;5048975;28;20206;-75
2023/04/05 12:16:01;;;;;;;5.87;2.70;;;15.60;76.10;;;;;;5051960;28;20256;-72
2023/04/05 12:18:31;;;;;;;5.27;2.90;;;15.50;76.50;;;;;;5049561;28;20187;-74
2023/04/05 12:21:02;;;;;;;5.07;2.93;;;15.50;77.20;;;;;;5056330;28;20227;-74
2023/04/05 12:23:34;;;;;;;4.80;2.60;;;15.50;77.20;;;;;;5047870;28;20691;-74
2023/04/05 12:26:03;;;;;;;4.20;2.60;;;15.50;77.30;;;;;;5056503;28;20213;-74
2023/04/05 12:28:50;;;;;;;8.00;3.13;;;15.40;77.50;;;;;;5050429;28;20192;-74
2023/04/05 12:31:18;;;;;;;6.23;3.47;;;15.40;77.90;;;;;;5047478;28;20195;-74
2023/04/05 12:33:46;;;;;;;4.80;3.20;;;15.40;78.00;;;;;;5049151;28;20234;-74
2023/04/05 12:36:16;;;;;;;4.43;3.20;;;15.30;78.30;;;;;;5048535;28;20191;-75
2023/04/05 12:38:45;;;;;;;4.33;3.03;;;15.30;78.20;;;;;;5040694;28;20675;-76
2023/04/05 12:41:16;;;;;;;6.63;3.13;;;15.20;78.30;;;;;;5049650;28;20674;-76
2023/04/05 12:43:44;;;;;;;7.07;3.30;;;15.20;78.30;;;;;;5059665;28;20222;-75
2023/04/05 12:46:17;;;;;;;5.03;3.57;;;15.20;78.50;;;;;;5052161;28;20198;-73
2023/04/05 12:48:52;;;;;;;5.23;3.70;;;15.10;78.20;;;;;;5050105;28;20192;-75
2023/04/05 12:51:24;;;;;;;6.03;2.97;;;15.10;78.30;;;;;;5050719;28;20198;-74
2023/04/05 12:53:57;;;;;;;4.07;3.23;;;15.00;78.40;;;;;;5056427;28;20214;-74
2023/04/05 12:56:29;;;;;;;5.07;3.50;;;15.00;78.30;;;;;;5052164;28;20647;-72
2023/04/05 12:58:57;;;;;;;4.57;3.30;;;14.90;78.60;;;;;;5054899;28;20196;-75
2023/04/05 13:01:26;;;;;;;5.50;3.20;;;14.80;78.60;;;;;;5041601;28;20282;-74
2023/04/05 13:03:54;;;;;;;6.33;3.60;;;14.70;78.70;;;;;;5051509;28;20187;-72
2023/04/05 13:06:41;;;;;;;5.23;3.40;;;14.70;79.00;;;;;;5050366;28;20244;-75